sensor_id;sensor_type;location;lat;lon;timestamp;pressure;altitude;pressure_sealevel;temperature;humidity
82222;BME280;71818;52.352;10.912;2023-07-28T00:00:26;99004.84;;;16.13;97.93
82222;BME280;71818;52.352;10.912;2023-07-28T00:02:52;98999.03;;;16.10;98.15
82222;BME280;71818;52.352;10.912;2023-07-28T00:05:17;98999.38;;;16.07;98.61
82222;BME280;71818;52.352;10.912;2023-07-28T00:07:42;99009.25;;;16.06;98.58
82222;BME280;71818;52.352;10.912;2023-07-28T00:10:08;99008.41;;;16.06;98.43
82222;BME280;71818;52.352;10.912;2023-07-28T00:12:34;99002.22;;;16.05;98.81
82222;BME280;71818;52.352;10.912;2023-07-28T00:14:59;99001.41;;;16.05;98.83
82222;BME280;71818;52.352;10.912;2023-07-28T00:17:25;99002.41;;;16.04;98.78
82222;BME280;71818;52.352;10.912;2023-07-28T00:19:51;98996.41;;;16.02;99.04
82222;BME280;71818;52.352;10.912;2023-07-28T00:22:16;98996.41;;;16.02;99.12
82222;BME280;71818;52.352;10.912;2023-07-28T00:24:41;99000.75;;;16.03;98.98
82222;BME280;71818;52.352;10.912;2023-07-28T00:27:07;99000.94;;;16.01;99.20
82222;BME280;71818;52.352;10.912;2023-07-28T00:29:32;98995.41;;;16.03;99.19
82222;BME280;71818;52.352;10.912;2023-07-28T00:31:57;99006.28;;;16.01;99.28
82222;BME280;71818;52.352;10.912;2023-07-28T00:34:23;99001.75;;;16.02;99.29
82222;BME280;71818;52.352;10.912;2023-07-28T00:36:48;98996.41;;;16.02;99.39
82222;BME280;71818;52.352;10.912;2023-07-28T00:39:13;99000.09;;;16.01;99.34
82222;BME280;71818;52.352;10.912;2023-07-28T00:41:39;99002.78;;;16.01;99.15
82222;BME280;71818;52.352;10.912;2023-07-28T00:44:04;99006.28;;;16.01;99.08
82222;BME280;71818;52.352;10.912;2023-07-28T00:46:30;98998.06;;;16.03;98.95
82222;BME280;71818;52.352;10.912;2023-07-28T00:48:56;99004.25;;;16.03;99.13
82222;BME280;71818;52.352;10.912;2023-07-28T00:51:21;99007.59;;;16.05;98.81
82222;BME280;71818;52.352;10.912;2023-07-28T00:53:47;99006.56;;;16.06;98.70
82222;BME280;71818;52.352;10.912;2023-07-28T00:56:13;99005.56;;;16.07;98.91
82222;BME280;71818;52.352;10.912;2023-07-28T00:58:39;99003.38;;;16.11;98.64
82222;BME280;71818;52.352;10.912;2023-07-28T01:01:04;99010.75;;;16.09;98.35
82222;BME280;71818;52.352;10.912;2023-07-28T01:03:30;99013.44;;;16.09;98.12
82222;BME280;71818;52.352;10.912;2023-07-28T01:06:20;99002.34;;;16.12;97.87
82222;BME280;71818;52.352;10.912;2023-07-28T01:09:05;99002.53;;;16.10;97.90
82222;BME280;71818;52.352;10.912;2023-07-28T01:11:34;99008.22;;;16.07;98.03
82222;BME280;71818;52.352;10.912;2023-07-28T01:14:00;99002.41;;;16.04;98.38
82222;BME280;71818;52.352;10.912;2023-07-28T01:16:26;98992.53;;;16.04;98.09
82222;BME280;71818;52.352;10.912;2023-07-28T01:18:51;98994.00;;;16.07;98.00
82222;BME280;71818;52.352;10.912;2023-07-28T01:21:22;98994.00;;;16.07;98.07
82222;BME280;71818;52.352;10.912;2023-07-28T01:24:15;98989.88;;;16.04;97.79
82222;BME280;71818;52.352;10.912;2023-07-28T01:26:45;98991.53;;;16.05;98.13
82222;BME280;71818;52.352;10.912;2023-07-28T01:29:12;98994.38;;;16.04;98.06
82222;BME280;71818;52.352;10.912;2023-07-28T01:31:39;98988.38;;;16.02;98.15
82222;BME280;71818;52.352;10.912;2023-07-28T01:34:04;98993.09;;;16.00;98.22
82222;BME280;71818;52.352;10.912;2023-07-28T01:36:30;98995.94;;;15.98;98.28
82222;BME280;71818;52.352;10.912;2023-07-28T01:38:55;98989.56;;;15.99;98.33
82222;BME280;71818;52.352;10.912;2023-07-28T01:41:20;98991.44;;;15.99;98.50
82222;BME280;71818;52.352;10.912;2023-07-28T01:43:46;98989.56;;;15.99;98.46
82222;BME280;71818;52.352;10.912;2023-07-28T01:46:11;98986.25;;;15.97;98.76
82222;BME280;71818;52.352;10.912;2023-07-28T01:48:37;98990.97;;;15.95;98.77
82222;BME280;71818;52.352;10.912;2023-07-28T01:51:02;98979.44;;;15.95;98.67
82222;BME280;71818;52.352;10.912;2023-07-28T01:53:27;98985.59;;;15.95;98.85
82222;BME280;71818;52.352;10.912;2023-07-28T01:55:53;98985.59;;;15.95;98.81
82222;BME280;71818;52.352;10.912;2023-07-28T01:58:18;98979.59;;;15.93;99.06
82222;BME280;71818;52.352;10.912;2023-07-28T02:00:43;98983.94;;;15.94;98.87
82222;BME280;71818;52.352;10.912;2023-07-28T02:03:11;98984.59;;;15.96;98.84
82222;BME280;71818;52.352;10.912;2023-07-28T02:05:36;98987.28;;;15.96;98.65
82222;BME280;71818;52.352;10.912;2023-07-28T02:08:02;98977.03;;;16.00;98.65
82222;BME280;71818;52.352;10.912;2023-07-28T02:10:28;98968.81;;;16.01;98.55
82222;BME280;71818;52.352;10.912;2023-07-28T02:12:53;98970.66;;;16.01;98.39
82222;BME280;71818;52.352;10.912;2023-07-28T02:15:19;98984.88;;;16.01;98.41
82222;BME280;71818;52.352;10.912;2023-07-28T02:17:44;98982.00;;;16.03;98.03
82222;BME280;71818;52.352;10.912;2023-07-28T02:20:10;98984.88;;;16.01;98.38
82222;BME280;71818;52.352;10.912;2023-07-28T02:22:41;98985.88;;;16.00;98.26
82222;BME280;71818;52.352;10.912;2023-07-28T02:25:07;98979.69;;;16.00;98.37
82222;BME280;71818;52.352;10.912;2023-07-28T02:27:33;98989.41;;;16.01;98.60
82222;BME280;71818;52.352;10.912;2023-07-28T02:29:58;98988.56;;;16.00;98.43
82222;BME280;71818;52.352;10.912;2023-07-28T02:32:24;98992.25;;;15.99;98.74
82222;BME280;71818;52.352;10.912;2023-07-28T02:34:49;98994.94;;;15.99;98.43
82222;BME280;71818;52.352;10.912;2023-07-28T02:37:15;98994.09;;;15.99;98.58
82222;BME280;71818;52.352;10.912;2023-07-28T02:39:41;98993.09;;;16.00;98.53
82222;BME280;71818;52.352;10.912;2023-07-28T02:42:07;98998.25;;;16.01;98.50
82222;BME280;71818;52.352;10.912;2023-07-28T02:44:32;99000.09;;;16.01;98.39
82222;BME280;71818;52.352;10.912;2023-07-28T02:46:57;99001.31;;;15.98;98.39
82222;BME280;71818;52.352;10.912;2023-07-28T02:49:22;98997.78;;;15.98;98.50
82222;BME280;71818;52.352;10.912;2023-07-28T02:51:48;98999.63;;;15.97;98.66
82222;BME280;71818;52.352;10.912;2023-07-28T02:54:13;98995.94;;;15.98;98.54
82222;BME280;71818;52.352;10.912;2023-07-28T02:56:38;98995.94;;;15.98;98.80
82222;BME280;71818;52.352;10.912;2023-07-28T02:59:05;99000.47;;;15.98;98.66
82222;BME280;71818;52.352;10.912;2023-07-28T03:01:30;99007.66;;;15.97;98.75
82222;BME280;71818;52.352;10.912;2023-07-28T03:04:02;99000.47;;;15.98;98.65
82222;BME280;71818;52.352;10.912;2023-07-28T03:06:28;99001.31;;;15.98;98.70
82222;BME280;71818;52.352;10.912;2023-07-28T03:08:53;99005.81;;;15.98;98.48
82222;BME280;71818;52.352;10.912;2023-07-28T03:11:19;99003.34;;;15.96;98.80
82222;BME280;71818;52.352;10.912;2023-07-28T03:13:44;99003.34;;;15.96;99.09
82222;BME280;71818;52.352;10.912;2023-07-28T03:16:09;99007.84;;;15.96;99.00
82222;BME280;71818;52.352;10.912;2023-07-28T03:18:35;99007.66;;;15.97;98.94
82222;BME280;71818;52.352;10.912;2023-07-28T03:21:00;98996.13;;;15.97;98.65
82222;BME280;71818;52.352;10.912;2023-07-28T03:23:26;99000.47;;;15.98;98.88
82222;BME280;71818;52.352;10.912;2023-07-28T03:25:51;99004.81;;;15.99;98.74
82222;BME280;71818;52.352;10.912;2023-07-28T03:28:17;99001.94;;;16.00;98.91
82222;BME280;71818;52.352;10.912;2023-07-28T03:30:42;99002.97;;;15.99;98.73
82222;BME280;71818;52.352;10.912;2023-07-28T03:33:08;98999.28;;;16.00;98.96
82222;BME280;71818;52.352;10.912;2023-07-28T03:35:33;98999.28;;;16.00;98.78
82222;BME280;71818;52.352;10.912;2023-07-28T03:38:01;98992.25;;;15.99;98.78
82222;BME280;71818;52.352;10.912;2023-07-28T03:40:27;98993.09;;;16.00;98.63
82222;BME280;71818;52.352;10.912;2023-07-28T03:42:53;98995.78;;;16.00;98.46
82222;BME280;71818;52.352;10.912;2023-07-28T03:45:18;98996.78;;;15.99;98.18
82222;BME280;71818;52.352;10.912;2023-07-28T03:47:44;98998.25;;;16.01;98.48
82222;BME280;71818;52.352;10.912;2023-07-28T03:50:09;99000.75;;;16.03;98.48
82222;BME280;71818;52.352;10.912;2023-07-28T03:52:34;98997.25;;;16.02;98.44
82222;BME280;71818;52.352;10.912;2023-07-28T03:55:00;98997.88;;;16.04;98.24
82222;BME280;71818;52.352;10.912;2023-07-28T03:57:25;98984.69;;;16.03;98.29
82222;BME280;71818;52.352;10.912;2023-07-28T03:59:50;98991.06;;;16.02;98.30
82222;BME280;71818;52.352;10.912;2023-07-28T04:02:16;99000.94;;;16.01;98.05
82222;BME280;71818;52.352;10.912;2023-07-28T04:04:41;99005.09;;;16.04;98.20
82222;BME280;71818;52.352;10.912;2023-07-28T04:07:06;99017.47;;;16.05;98.15
82222;BME280;71818;52.352;10.912;2023-07-28T04:09:32;99016.28;;;16.07;98.06
82222;BME280;71818;52.352;10.912;2023-07-28T04:11:57;99019.63;;;16.09;97.90
82222;BME280;71818;52.352;10.912;2023-07-28T04:14:22;99026.63;;;16.10;97.80
82222;BME280;71818;52.352;10.912;2023-07-28T04:16:48;99023.59;;;16.13;97.50
82222;BME280;71818;52.352;10.912;2023-07-28T04:19:13;99029.13;;;16.12;97.49
82222;BME280;71818;52.352;10.912;2023-07-28T04:21:39;99039.84;;;16.12;97.55
82222;BME280;71818;52.352;10.912;2023-07-28T04:24:07;99039.00;;;16.11;97.55
82222;BME280;71818;52.352;10.912;2023-07-28T04:26:33;99046.69;;;16.14;97.32
82222;BME280;71818;52.352;10.912;2023-07-28T04:28:58;99039.84;;;16.12;97.42
82222;BME280;71818;52.352;10.912;2023-07-28T04:31:24;99040.69;;;16.12;97.23
82222;BME280;71818;52.352;10.912;2023-07-28T04:33:49;99048.34;;;16.16;97.28
82222;BME280;71818;52.352;10.912;2023-07-28T04:36:14;99054.34;;;16.18;97.51
82222;BME280;71818;52.352;10.912;2023-07-28T04:38:40;99050.47;;;16.20;97.22
82222;BME280;71818;52.352;10.912;2023-07-28T04:41:05;99064.22;;;16.17;97.16
82222;BME280;71818;52.352;10.912;2023-07-28T04:43:30;99046.50;;;16.16;97.20
82222;BME280;71818;52.352;10.912;2023-07-28T04:45:56;99046.03;;;16.12;97.14
82222;BME280;71818;52.352;10.912;2023-07-28T04:48:21;99044.38;;;16.11;97.69
82222;BME280;71818;52.352;10.912;2023-07-28T04:50:47;99050.09;;;16.08;97.50
82222;BME280;71818;52.352;10.912;2023-07-28T04:53:12;99045.72;;;16.07;98.11
82222;BME280;71818;52.352;10.912;2023-07-28T04:55:37;99046.41;;;16.09;98.08
82222;BME280;71818;52.352;10.912;2023-07-28T04:58:03;99044.75;;;16.08;97.94
82222;BME280;71818;52.352;10.912;2023-07-28T05:00:28;99042.22;;;16.07;98.16
82222;BME280;71818;52.352;10.912;2023-07-28T05:02:54;99050.75;;;16.10;98.16
82222;BME280;71818;52.352;10.912;2023-07-28T05:05:19;99056.28;;;16.09;98.30
82222;BME280;71818;52.352;10.912;2023-07-28T05:07:44;99058.13;;;16.08;98.33
82222;BME280;71818;52.352;10.912;2023-07-28T05:10:10;99057.13;;;16.09;98.25
82222;BME280;71818;52.352;10.912;2023-07-28T05:12:35;99067.63;;;16.11;98.23
82222;BME280;71818;52.352;10.912;2023-07-28T05:15:01;99076.50;;;16.11;98.29
82222;BME280;71818;52.352;10.912;2023-07-28T05:17:26;99077.16;;;16.13;98.34
82222;BME280;71818;52.352;10.912;2023-07-28T05:19:51;99064.88;;;16.19;97.98
82222;BME280;71818;52.352;10.912;2023-07-28T05:22:17;99053.94;;;16.29;97.85
82222;BME280;71818;52.352;10.912;2023-07-28T05:24:43;99062.00;;;16.43;97.51
82222;BME280;71818;52.352;10.912;2023-07-28T05:27:12;99069.84;;;16.45;96.87
82222;BME280;71818;52.352;10.912;2023-07-28T05:29:40;99064.13;;;16.48;96.91
82222;BME280;71818;52.352;10.912;2023-07-28T05:32:06;99076.88;;;16.46;96.57
82222;BME280;71818;52.352;10.912;2023-07-28T05:34:31;99075.94;;;16.39;96.71
82222;BME280;71818;52.352;10.912;2023-07-28T05:36:57;99082.28;;;16.38;96.38
82222;BME280;71818;52.352;10.912;2023-07-28T05:39:22;99091.34;;;16.37;96.50
82222;BME280;71818;52.352;10.912;2023-07-28T05:41:47;99108.63;;;16.34;96.38
82222;BME280;71818;52.352;10.912;2023-07-28T05:44:13;99113.13;;;16.34;96.72
82222;BME280;71818;52.352;10.912;2023-07-28T05:46:39;99112.66;;;16.30;96.45
82222;BME280;71818;52.352;10.912;2023-07-28T05:49:04;99115.16;;;16.32;96.43
82222;BME280;71818;52.352;10.912;2023-07-28T05:51:30;99123.56;;;16.29;96.60
82222;BME280;71818;52.352;10.912;2023-07-28T05:53:55;99114.69;;;16.28;96.47
82222;BME280;71818;52.352;10.912;2023-07-28T05:56:21;99119.50;;;16.33;96.33
82222;BME280;71818;52.352;10.912;2023-07-28T05:58:47;99120.47;;;16.40;96.44
82222;BME280;71818;52.352;10.912;2023-07-28T06:01:12;99118.72;;;16.47;96.11
82222;BME280;71818;52.352;10.912;2023-07-28T06:03:38;99110.63;;;16.55;95.94
82222;BME280;71818;52.352;10.912;2023-07-28T06:06:03;99110.72;;;16.62;95.84
82222;BME280;71818;52.352;10.912;2023-07-28T06:08:29;99122.00;;;16.57;95.83
82222;BME280;71818;52.352;10.912;2023-07-28T06:10:54;99118.66;;;16.55;95.76
82222;BME280;71818;52.352;10.912;2023-07-28T06:13:20;99122.38;;;16.54;95.98
82222;BME280;71818;52.352;10.912;2023-07-28T06:15:45;99132.78;;;16.49;95.86
82222;BME280;71818;52.352;10.912;2023-07-28T06:18:10;99129.06;;;16.50;96.08
82222;BME280;71818;52.352;10.912;2023-07-28T06:20:36;99129.72;;;16.52;96.00
82222;BME280;71818;52.352;10.912;2023-07-28T06:23:01;99128.06;;;16.51;95.97
82222;BME280;71818;52.352;10.912;2023-07-28T06:25:27;99139.44;;;16.53;96.02
82222;BME280;71818;52.352;10.912;2023-07-28T06:27:52;99132.53;;;16.59;95.81
82222;BME280;71818;52.352;10.912;2023-07-28T06:30:17;99143.91;;;16.61;95.82
82222;BME280;71818;52.352;10.912;2023-07-28T06:32:43;99138.97;;;16.72;95.99
82222;BME280;71818;52.352;10.912;2023-07-28T06:35:08;99148.03;;;16.71;95.75
82222;BME280;71818;52.352;10.912;2023-07-28T06:37:36;99149.03;;;16.70;95.68
82222;BME280;71818;52.352;10.912;2023-07-28T06:40:06;99155.25;;;16.63;95.60
82222;BME280;71818;52.352;10.912;2023-07-28T06:42:33;99163.03;;;16.58;95.92
82222;BME280;71818;52.352;10.912;2023-07-28T06:44:59;99157.28;;;16.61;96.10
82222;BME280;71818;52.352;10.912;2023-07-28T06:47:24;99162.28;;;16.64;95.95
82222;BME280;71818;52.352;10.912;2023-07-28T06:49:49;99164.44;;;16.68;95.90
82222;BME280;71818;52.352;10.912;2023-07-28T06:52:15;99166.28;;;16.68;95.68
82222;BME280;71818;52.352;10.912;2023-07-28T06:54:40;99169.66;;;16.70;95.78
82222;BME280;71818;52.352;10.912;2023-07-28T06:57:06;99179.19;;;16.72;95.88
82222;BME280;71818;52.352;10.912;2023-07-28T06:59:32;99182.69;;;16.73;96.00
82222;BME280;71818;52.352;10.912;2023-07-28T07:01:57;99177.34;;;16.73;95.94
82222;BME280;71818;52.352;10.912;2023-07-28T07:04:22;99181.03;;;16.72;96.04
82222;BME280;71818;52.352;10.912;2023-07-28T07:06:48;99188.22;;;16.71;96.18
82222;BME280;71818;52.352;10.912;2023-07-28T07:09:13;99190.91;;;16.71;95.84
82222;BME280;71818;52.352;10.912;2023-07-28T07:11:40;99194.91;;;16.76;95.95
82222;BME280;71818;52.352;10.912;2023-07-28T07:14:06;99189.72;;;16.74;95.56
82222;BME280;71818;52.352;10.912;2023-07-28T07:16:31;99192.03;;;16.77;95.36
82222;BME280;71818;52.352;10.912;2023-07-28T07:18:56;99189.81;;;16.81;95.39
82222;BME280;71818;52.352;10.912;2023-07-28T07:21:22;99192.31;;;16.82;94.95
82222;BME280;71818;52.352;10.912;2023-07-28T07:23:47;99196.84;;;16.82;94.82
82222;BME280;71818;52.352;10.912;2023-07-28T07:26:12;99196.13;;;16.88;94.81
82222;BME280;71818;52.352;10.912;2023-07-28T07:28:38;99189.75;;;16.89;93.96
82222;BME280;71818;52.352;10.912;2023-07-28T07:31:03;99191.31;;;16.98;93.38
82222;BME280;71818;52.352;10.912;2023-07-28T07:33:28;99193.19;;;17.12;93.18
82222;BME280;71818;52.352;10.912;2023-07-28T07:35:54;99187.66;;;17.28;92.76
82222;BME280;71818;52.352;10.912;2023-07-28T07:38:19;99195.19;;;17.33;92.41
82222;BME280;71818;52.352;10.912;2023-07-28T07:40:48;99195.53;;;17.30;91.98
82222;BME280;71818;52.352;10.912;2023-07-28T07:43:13;99193.59;;;17.39;91.51
82222;BME280;71818;52.352;10.912;2023-07-28T07:45:44;99192.38;;;17.56;91.43
82222;BME280;71818;52.352;10.912;2023-07-28T07:48:11;99190.81;;;17.76;90.13
82222;BME280;71818;52.352;10.912;2023-07-28T07:50:36;99197.53;;;18.02;89.81
82222;BME280;71818;52.352;10.912;2023-07-28T07:53:02;99194.09;;;18.23;88.34
82222;BME280;71818;52.352;10.912;2023-07-28T07:55:27;99195.16;;;18.28;88.03
82222;BME280;71818;52.352;10.912;2023-07-28T07:57:52;99202.41;;;18.49;87.30
82222;BME280;71818;52.352;10.912;2023-07-28T08:00:18;99203.81;;;18.45;86.58
82222;BME280;71818;52.352;10.912;2023-07-28T08:02:43;99203.91;;;18.37;87.32
82222;BME280;71818;52.352;10.912;2023-07-28T08:05:09;99198.72;;;18.71;86.79
82222;BME280;71818;52.352;10.912;2023-07-28T08:07:35;99207.34;;;18.88;85.06
82222;BME280;71818;52.352;10.912;2023-07-28T08:10:00;99200.84;;;19.32;84.47
82222;BME280;71818;52.352;10.912;2023-07-28T08:12:26;99197.78;;;19.41;83.80
82222;BME280;71818;52.352;10.912;2023-07-28T08:14:52;99203.91;;;19.29;83.71
82222;BME280;71818;52.352;10.912;2023-07-28T08:17:18;99206.53;;;18.88;84.55
82222;BME280;71818;52.352;10.912;2023-07-28T08:19:44;99223.88;;;18.64;85.50
82222;BME280;71818;52.352;10.912;2023-07-28T08:22:09;99228.03;;;18.66;85.51
82222;BME280;71818;52.352;10.912;2023-07-28T08:24:35;99225.91;;;18.83;85.21
82222;BME280;71818;52.352;10.912;2023-07-28T08:27:00;99229.25;;;18.85;84.53
82222;BME280;71818;52.352;10.912;2023-07-28T08:29:25;99233.94;;;18.76;84.70
82222;BME280;71818;52.352;10.912;2023-07-28T08:31:51;99237.06;;;18.80;84.24
82222;BME280;71818;52.352;10.912;2023-07-28T08:34:16;99245.56;;;18.84;85.05
82222;BME280;71818;52.352;10.912;2023-07-28T08:36:42;99245.31;;;18.78;84.29
82222;BME280;71818;52.352;10.912;2023-07-28T08:39:08;99250.81;;;18.92;84.65
82222;BME280;71818;52.352;10.912;2023-07-28T08:41:34;99258.38;;;19.03;84.45
82222;BME280;71818;52.352;10.912;2023-07-28T08:44:00;99257.28;;;18.97;84.05
82222;BME280;71818;52.352;10.912;2023-07-28T08:46:25;99257.63;;;18.88;83.55
82222;BME280;71818;52.352;10.912;2023-07-28T08:48:51;99261.16;;;18.88;83.62
82222;BME280;71818;52.352;10.912;2023-07-28T08:51:16;99263.19;;;18.86;84.70
82222;BME280;71818;52.352;10.912;2023-07-28T08:53:42;99265.63;;;18.81;84.35
82222;BME280;71818;52.352;10.912;2023-07-28T08:56:08;99263.56;;;18.83;84.55
82222;BME280;71818;52.352;10.912;2023-07-28T08:58:34;99265.34;;;18.97;84.73
82222;BME280;71818;52.352;10.912;2023-07-28T09:00:59;99267.66;;;18.79;84.41
82222;BME280;71818;52.352;10.912;2023-07-28T09:03:27;99272.94;;;18.87;84.77
82222;BME280;71818;52.352;10.912;2023-07-28T09:05:59;99271.34;;;18.71;84.40
82222;BME280;71818;52.352;10.912;2023-07-28T09:08:26;99272.56;;;18.69;84.86
82222;BME280;71818;52.352;10.912;2023-07-28T09:10:51;99275.75;;;18.79;84.26
82222;BME280;71818;52.352;10.912;2023-07-28T09:13:18;99279.47;;;18.99;83.94
82222;BME280;71818;52.352;10.912;2023-07-28T09:15:44;99280.50;;;19.26;82.96
82222;BME280;71818;52.352;10.912;2023-07-28T09:18:12;99279.19;;;18.94;83.34
82222;BME280;71818;52.352;10.912;2023-07-28T09:20:39;99284.63;;;18.79;84.32
82222;BME280;71818;52.352;10.912;2023-07-28T09:23:05;99281.69;;;18.74;84.27
82222;BME280;71818;52.352;10.912;2023-07-28T09:25:31;99280.53;;;18.84;83.66
82222;BME280;71818;52.352;10.912;2023-07-28T09:27:57;99281.44;;;18.91;84.08
82222;BME280;71818;52.352;10.912;2023-07-28T09:30:24;99286.34;;;18.66;84.46
82222;BME280;71818;52.352;10.912;2023-07-28T09:32:54;99284.84;;;18.99;84.21
82222;BME280;71818;52.352;10.912;2023-07-28T09:35:21;99295.59;;;19.49;81.67
82222;BME280;71818;52.352;10.912;2023-07-28T09:37:49;99293.19;;;19.88;81.00
82222;BME280;71818;52.352;10.912;2023-07-28T09:40:18;99298.94;;;20.20;80.04
82222;BME280;71818;52.352;10.912;2023-07-28T09:42:45;99289.91;;;20.41;79.32
82222;BME280;71818;52.352;10.912;2023-07-28T09:45:15;99298.22;;;20.39;81.09
82222;BME280;71818;52.352;10.912;2023-07-28T09:47:44;99305.06;;;19.94;80.94
82222;BME280;71818;52.352;10.912;2023-07-28T09:50:10;99308.47;;;19.04;84.92
82222;BME280;71818;52.352;10.912;2023-07-28T09:52:42;99314.59;;;18.40;88.35
82222;BME280;71818;52.352;10.912;2023-07-28T09:55:09;99317.31;;;18.26;89.67
82222;BME280;71818;52.352;10.912;2023-07-28T09:57:45;99315.84;;;18.59;89.71
82222;BME280;71818;52.352;10.912;2023-07-28T10:00:13;99313.13;;;18.74;88.18
82222;BME280;71818;52.352;10.912;2023-07-28T10:02:39;99313.78;;;19.19;87.44
82222;BME280;71818;52.352;10.912;2023-07-28T10:05:06;99313.91;;;19.32;86.29
82222;BME280;71818;52.352;10.912;2023-07-28T10:07:34;99313.19;;;19.23;86.57
82222;BME280;71818;52.352;10.912;2023-07-28T10:10:03;99318.66;;;19.58;85.86
82222;BME280;71818;52.352;10.912;2023-07-28T10:12:28;99308.97;;;19.91;84.46
82222;BME280;71818;52.352;10.912;2023-07-28T10:15:01;99306.13;;;20.06;84.17
82222;BME280;71818;52.352;10.912;2023-07-28T10:17:34;99320.47;;;20.13;84.60
82222;BME280;71818;52.352;10.912;2023-07-28T10:20:06;99307.28;;;20.25;82.93
82222;BME280;71818;52.352;10.912;2023-07-28T10:22:46;99309.38;;;20.29;82.42
82222;BME280;71818;52.352;10.912;2023-07-28T10:25:12;99314.19;;;20.41;81.41
82222;BME280;71818;52.352;10.912;2023-07-28T10:27:40;99312.41;;;20.13;81.60
82222;BME280;71818;52.352;10.912;2023-07-28T10:30:11;99313.28;;;20.27;82.18
82222;BME280;71818;52.352;10.912;2023-07-28T10:32:40;99310.13;;;20.58;81.13
82222;BME280;71818;52.352;10.912;2023-07-28T10:35:25;99309.84;;;20.40;81.29
82222;BME280;71818;52.352;10.912;2023-07-28T10:37:51;99304.69;;;20.45;81.61
82222;BME280;71818;52.352;10.912;2023-07-28T10:40:35;99315.31;;;20.53;81.64
82222;BME280;71818;52.352;10.912;2023-07-28T10:43:04;99318.00;;;20.18;81.59
82222;BME280;71818;52.352;10.912;2023-07-28T10:45:31;99317.94;;;20.05;82.00
82222;BME280;71818;52.352;10.912;2023-07-28T10:47:57;99316.00;;;20.27;82.23
82222;BME280;71818;52.352;10.912;2023-07-28T10:50:29;99317.22;;;20.24;82.61
82222;BME280;71818;52.352;10.912;2023-07-28T10:52:55;99319.22;;;20.09;82.13
82222;BME280;71818;52.352;10.912;2023-07-28T10:55:26;99311.13;;;20.44;81.56
82222;BME280;71818;52.352;10.912;2023-07-28T10:57:53;99321.03;;;21.11;81.41
82222;BME280;71818;52.352;10.912;2023-07-28T11:00:20;99314.38;;;21.07;78.53
82222;BME280;71818;52.352;10.912;2023-07-28T11:02:54;99305.50;;;21.39;77.07
82222;BME280;71818;52.352;10.912;2023-07-28T11:05:28;99311.50;;;21.81;77.29
82222;BME280;71818;52.352;10.912;2023-07-28T11:08:02;99306.56;;;22.36;76.93
82222;BME280;71818;52.352;10.912;2023-07-28T11:10:29;99299.00;;;22.51;74.35
82222;BME280;71818;52.352;10.912;2023-07-28T11:12:58;99297.25;;;23.33;74.65
82222;BME280;71818;52.352;10.912;2023-07-28T11:15:24;99289.50;;;23.37;73.84
82222;BME280;71818;52.352;10.912;2023-07-28T11:17:51;99302.41;;;23.16;72.87
82222;BME280;71818;52.352;10.912;2023-07-28T11:20:25;99291.63;;;22.72;71.76
82222;BME280;71818;52.352;10.912;2023-07-28T11:22:59;99294.72;;;22.75;71.17
82222;BME280;71818;52.352;10.912;2023-07-28T11:25:26;99296.81;;;22.73;70.78
82222;BME280;71818;52.352;10.912;2023-07-28T11:27:52;99304.81;;;21.97;70.87
82222;BME280;71818;52.352;10.912;2023-07-28T11:30:19;99291.63;;;22.27;73.09
82222;BME280;71818;52.352;10.912;2023-07-28T11:32:46;99299.34;;;22.68;71.37
82222;BME280;71818;52.352;10.912;2023-07-28T11:35:14;99303.41;;;23.47;68.54
82222;BME280;71818;52.352;10.912;2023-07-28T11:37:42;99295.09;;;22.79;68.98
82222;BME280;71818;52.352;10.912;2023-07-28T11:40:09;99309.13;;;22.18;69.52
82222;BME280;71818;52.352;10.912;2023-07-28T11:42:38;99311.06;;;21.84;71.38
82222;BME280;71818;52.352;10.912;2023-07-28T11:45:05;99312.16;;;21.50;72.11
82222;BME280;71818;52.352;10.912;2023-07-28T11:47:31;99320.88;;;21.45;72.48
82222;BME280;71818;52.352;10.912;2023-07-28T11:49:56;99326.25;;;21.19;74.39
82222;BME280;71818;52.352;10.912;2023-07-28T11:52:24;99326.41;;;20.98;77.26
82222;BME280;71818;52.352;10.912;2023-07-28T11:54:54;99327.44;;;20.97;79.67
82222;BME280;71818;52.352;10.912;2023-07-28T11:57:19;99326.66;;;21.82;77.46
82222;BME280;71818;52.352;10.912;2023-07-28T11:59:45;99328.19;;;22.43;75.47
82222;BME280;71818;52.352;10.912;2023-07-28T12:02:10;99317.91;;;22.06;74.57
82222;BME280;71818;52.352;10.912;2023-07-28T12:04:40;99324.38;;;22.05;76.18
82222;BME280;71818;52.352;10.912;2023-07-28T12:07:16;99320.63;;;22.51;73.67
82222;BME280;71818;52.352;10.912;2023-07-28T12:12:15;99322.88;;;22.16;73.44
82222;BME280;71818;52.352;10.912;2023-07-28T12:14:41;99331.25;;;21.68;75.55
82222;BME280;71818;52.352;10.912;2023-07-28T12:17:14;99333.34;;;21.40;75.10
82222;BME280;71818;52.352;10.912;2023-07-28T12:22:22;99339.16;;;21.37;73.83
82222;BME280;71818;52.352;10.912;2023-07-28T12:24:47;99345.38;;;21.90;74.26
82222;BME280;71818;52.352;10.912;2023-07-28T12:27:13;99342.75;;;22.42;71.63
82222;BME280;71818;52.352;10.912;2023-07-28T12:29:39;99333.00;;;22.34;69.75
82222;BME280;71818;52.352;10.912;2023-07-28T12:32:04;99333.84;;;22.28;71.19
82222;BME280;71818;52.352;10.912;2023-07-28T12:34:30;99329.75;;;22.12;70.93
82222;BME280;71818;52.352;10.912;2023-07-28T12:36:56;99331.00;;;22.61;70.77
82222;BME280;71818;52.352;10.912;2023-07-28T12:39:21;99330.13;;;22.74;69.97
82222;BME280;71818;52.352;10.912;2023-07-28T12:41:46;99333.59;;;22.81;67.82
82222;BME280;71818;52.352;10.912;2023-07-28T12:44:12;99333.41;;;22.89;69.10
82222;BME280;71818;52.352;10.912;2023-07-28T12:46:37;99332.97;;;22.41;67.05
82222;BME280;71818;52.352;10.912;2023-07-28T12:49:03;99339.00;;;22.43;66.07
82222;BME280;71818;52.352;10.912;2023-07-28T12:51:28;99338.06;;;22.69;65.66